Time;durP1;ratioP1;P1;durP2;ratioP2;P2;SDS_P1;SDS_P2;PMS_P1;PMS_P2;Temp;Humidity;BMP_temperature;BMP_pressure;BME280_temperature;BME280_humidity;BME280_pressure;Samples;Min_cycle;Max_cycle;Signal;HPM_P1;HPM_P2
2023/05/23 12:43:25;;;;;;;15.70;8.80;;;;;;;19.02;100.00;-509.25;6225130;22;20248;-63
2023/05/23 12:45:52;;;;;;;16.77;8.83;;;;;;;19.12;100.00;787.00;6245056;23;20216;-62
2023/05/23 12:48:19;;;;;;;22.07;8.83;;;;;;;19.17;100.00;2083.75;6244931;23;20252;-62
2023/05/23 12:50:46;;;;;;;14.50;8.47;;;;;;;19.21;100.00;3705.41;6244553;23;20168;-63
2023/05/23 12:53:13;;;;;;;7.97;7.23;;;;;;;19.31;100.00;7926.31;6244919;23;20661;-63
2023/05/23 12:55:40;;;;;;;10.00;7.87;;;;;;;19.33;100.00;12152.16;6244831;23;20157;-63
2023/05/23 12:58:07;;;;;;;18.73;8.87;;;;;;;19.47;100.00;10529.53;6245170;23;20164;-63
2023/05/23 13:00:35;;;;;;;34.57;10.57;;;;;;;19.43;100.00;5655.28;6244738;23;20184;-63
2023/05/23 13:03:02;;;;;;;18.97;9.27;;;;;;;19.22;100.00;4678.72;6244882;23;20157;-63
2023/05/23 13:05:29;;;;;;;15.10;9.13;;;;;;;19.17;100.00;6949.78;6244492;23;20301;-64
2023/05/23 13:07:58;;;;;;;10.33;7.27;;;;;;;19.26;100.00;13776.81;6244265;23;20193;-63
2023/05/23 13:10:25;;;;;;;17.67;7.73;;;;;;;19.21;100.00;17030.38;6244789;23;20526;-63
2023/05/23 13:12:52;;;;;;;8.77;7.27;;;;;;;19.25;100.00;16705.88;6244532;23;20153;-63
2023/05/23 13:15:19;;;;;;;8.10;7.30;;;;;;;19.16;100.00;13123.47;6244474;23;20649;-62
2023/05/23 13:17:48;;;;;;;18.77;8.97;;;;;;;19.23;100.00;10199.09;6244407;23;20235;-63
2023/05/23 13:20:15;;;;;;;8.90;8.10;;;;;;;19.23;100.00;12474.84;6244664;23;20491;-63
2023/05/23 13:22:42;;;;;;;20.30;9.50;;;;;;;19.22;100.00;9548.88;6244744;23;20595;-63
2023/05/23 13:25:10;;;;;;;9.77;8.47;;;;;;;19.34;100.00;9226.53;6244776;23;20165;-62
2023/05/23 13:27:37;;;;;;;9.90;7.90;;;;;;;19.45;100.00;15735.44;6244533;23;20157;-63
2023/05/23 13:30:05;;;;;;;8.03;7.47;;;;;;;19.50;100.00;18669.25;6243971;23;20508;-63
2023/05/23 13:32:32;;;;;;;9.77;8.27;;;;;;;19.63;100.00;19651.97;6244164;23;20160;-63
2023/05/23 13:35:00;;;;;;;16.97;7.83;;;;;;;19.82;100.00;25863.19;6244894;23;20231;-62
2023/05/23 13:37:27;;;;;;;12.90;8.00;;;;;;;19.86;100.00;39949.72;6244521;23;20596;-62
2023/05/23 13:39:54;;;;;;;10.03;7.43;;;;;;;19.79;100.00;56724.75;6244582;23;20161;-64
2023/05/23 13:42:24;;;;;;;7.80;7.27;;;;;;;19.63;100.00;45187.88;6243929;23;20205;-63
2023/05/23 13:44:51;;;;;;;8.00;7.30;;;;;;;19.78;100.00;43884.75;6245147;23;20168;-63
2023/05/23 13:47:20;;;;;;;7.73;7.27;;;;;;;19.82;100.00;46517.66;6244426;23;20626;-63
2023/05/23 13:49:47;;;;;;;7.80;7.07;;;;;;;19.69;100.00;47493.63;6244278;23;20597;-63
2023/05/23 13:52:15;;;;;;;7.53;7.10;;;;;;;19.53;100.00;55381.75;6244619;23;20153;-63
2023/05/23 13:54:42;;;;;;;7.30;6.83;;;;;;;19.52;100.00;48466.91;6243893;23;20157;-64
2023/05/23 13:57:09;;;;;;;17.50;7.67;;;;;;;19.56;100.00;47483.69;6244307;23;20157;-63
2023/05/23 13:59:36;;;;;;;12.07;6.90;;;;;;;19.45;100.00;50763.81;6243704;23;20157;-63
2023/05/23 14:02:02;;;;;;;7.20;6.67;;;;;;;19.35;100.00;54376.22;6244116;23;20649;-63
2023/05/23 14:04:29;;;;;;;7.40;6.77;;;;;;;19.40;100.00;50430.34;6244538;23;20168;-63
2023/05/23 14:06:56;;;;;;;12.73;6.20;;;;;;;19.12;100.00;52050.59;6244526;23;20179;-63
2023/05/23 14:09:25;;;;;;;6.70;5.93;;;;;;;19.21;100.00;55021.75;6244565;23;20559;-63
2023/05/23 14:11:52;;;;;;;6.87;6.20;;;;;;;19.17;100.00;47122.81;6244135;23;20153;-63
2023/05/23 14:14:19;;;;;;;6.47;6.17;;;;;;;19.18;100.00;56336.53;6244206;23;20161;-62
2023/05/23 14:16:46;;;;;;;7.53;6.20;;;;;;;18.90;100.00;43161.75;6244452;23;20171;-65
2023/05/23 14:19:13;;;;;;;7.20;6.70;;;;;;;18.84;100.00;42173.31;6244566;23;20511;-62
2023/05/23 14:21:40;;;;;;;8.07;6.40;;;;;;;18.97;100.00;48749.56;6244468;23;20180;-64
2023/05/23 14:24:07;;;;;;;7.90;6.40;;;;;;;18.94;100.00;46775.47;6243764;23;20175;-63
2023/05/23 14:26:35;;;;;;;6.23;5.80;;;;;;;18.97;100.00;51050.34;6243803;23;20160;-63
2023/05/23 14:29:02;;;;;;;6.87;6.40;;;;;;;18.91;100.00;48744.06;6243826;23;20535;-63
2023/05/23 14:31:29;;;;;;;8.10;6.13;;;;;;;18.92;100.00;52032.56;6244252;23;20157;-63
2023/05/23 14:33:56;;;;;;;6.60;6.20;;;;;;;18.92;100.00;44476.16;6244532;23;20160;-63
2023/05/23 14:36:25;;;;;;;5.70;5.47;;;;;;;18.94;100.00;46775.47;6244158;23;20179;-63
2023/05/23 14:38:52;;;;;;;6.27;5.97;;;;;;;18.88;100.00;33006.41;6244243;23;20508;-63
2023/05/23 14:41:18;;;;;;;6.23;5.87;;;;;;;18.84;100.00;39223.31;6243885;23;20180;-63
2023/05/23 14:43:47;;;;;;;8.37;6.50;;;;;;;18.96;100.00;37593.84;6243505;23;20200;-64
2023/05/23 14:46:14;;;;;;;8.63;6.00;;;;;;;18.97;100.00;40871.22;6244153;23;20463;-63
2023/05/23 14:48:41;;;;;;;6.00;5.60;;;;;;;19.14;100.00;42524.00;6244585;23;20567;-64
2023/05/23 14:51:09;;;;;;;6.17;5.77;;;;;;;19.17;100.00;46465.72;6243706;23;20153;-64
2023/05/23 14:53:36;;;;;;;6.93;6.23;;;;;;;19.08;100.00;42519.53;6217143;23;20600;-62
2023/05/23 14:56:05;;;;;;;6.43;6.10;;;;;;;18.86;100.00;31697.59;6244204;23;20595;-62
2023/05/23 14:58:32;;;;;;;6.80;6.27;;;;;;;18.60;100.00;19614.25;6243685;23;20208;-63
2023/05/23 15:01:01;;;;;;;7.93;6.40;;;;;;;18.50;100.00;13431.00;6244100;23;20235;-63
2023/05/23 15:03:28;;;;;;;7.40;7.00;;;;;;;18.26;100.00;6610.63;6244336;23;20243;-63
2023/05/23 15:05:55;;;;;;;7.27;6.97;;;;;;;18.15;100.00;5636.72;6244163;23;20149;-63
2023/05/23 15:08:22;;;;;;;8.03;7.43;;;;;;;17.96;100.00;-2776.31;6244079;23;20219;-62
2023/05/23 15:10:49;;;;;;;8.00;7.30;;;;;;;17.60;100.00;-6648.88;6243813;23;20171;-62
2023/05/23 15:13:16;;;;;;;7.80;7.43;;;;;;;17.61;100.00;-10194.44;6243786;23;20157;-62
2023/05/23 15:15:43;;;;;;;9.43;8.57;;;;;;;17.29;100.00;-14052.38;6243578;23;20235;-63
2023/05/23 15:18:12;;;;;;;8.30;7.80;;;;;;;17.30;100.00;-18230.69;6244218;23;20157;-60
2023/05/23 15:20:39;;;;;;;9.20;8.40;;;;;;;17.10;100.00;-17583.78;6243695;23;20160;-63
2023/05/23 15:23:06;;;;;;;9.13;8.57;;;;;;;17.14;100.00;-15978.34;6244025;23;20515;-62
2023/05/23 15:25:33;;;;;;;8.60;8.17;;;;;;;17.31;100.00;-15017.50;6243938;23;20165;-62
2023/05/23 15:28:00;;;;;;;10.00;9.10;;;;;;;17.28;100.00;-13087.28;6244038;23;20604;-61
2023/05/23 15:30:27;;;;;;;8.97;8.37;;;;;;;17.29;100.00;-11800.41;6243630;23;20161;-60
2023/05/23 15:32:54;;;;;;;8.63;8.10;;;;;;;17.34;100.00;-9547.41;6243708;23;20488;-62
2023/05/23 15:35:22;;;;;;;8.57;8.07;;;;;;;17.52;100.00;-10837.53;6243800;23;20176;-61
2023/05/23 15:37:50;;;;;;;9.23;8.73;;;;;;;17.53;100.00;-10515.59;6243991;23;20161;-62
2023/05/23 15:40:17;;;;;;;8.60;7.97;;;;;;;17.66;100.00;-8906.03;6245052;23;20164;-62
2023/05/23 15:42:44;;;;;;;7.50;6.90;;;;;;;17.70;100.00;-4068.03;6245576;23;20283;-62
2023/05/23 15:45:12;;;;;;;7.33;6.93;;;;;;;17.69;100.00;-3422.38;6219518;23;20180;-63
2023/05/23 15:47:39;;;;;;;9.10;6.93;;;;;;;17.80;100.00;-191.66;6245770;23;20160;-61
2023/05/23 15:50:07;;;;;;;7.60;7.10;;;;;;;18.02;100.00;2720.81;6245837;23;20497;-62
2023/05/23 15:52:35;;;;;;;10.03;7.43;;;;;;;18.12;100.00;9526.22;6246080;23;20472;-63
2023/05/23 15:55:04;;;;;;;8.20;7.47;;;;;;;18.17;100.00;15371.13;6246117;23;20184;-62
2023/05/23 15:57:31;;;;;;;7.17;6.63;;;;;;;18.15;100.00;20248.41;6219027;23;20251;-61
2023/05/23 15:59:58;;;;;;;10.87;7.10;;;;;;;18.14;100.00;21224.22;6246079;23;20230;-62
2023/05/23 16:02:25;;;;;;;9.00;5.80;;;;;;;18.11;100.00;31655.16;6245452;23;20181;-62
2023/05/23 16:04:52;;;;;;;5.93;5.47;;;;;;;18.14;100.00;33943.38;6245835;23;20595;-61
2023/05/23 16:07:19;;;;;;;8.60;5.37;;;;;;;17.84;100.00;38173.59;6245687;23;20157;-61
2023/05/23 16:09:47;;;;;;;8.97;4.93;;;;;;;18.01;100.00;50638.31;6245741;23;20172;-61
2023/05/23 16:12:14;;;;;;;4.83;4.60;;;;;;;17.83;100.00;59824.50;6245613;23;20244;-61
2023/05/23 16:14:41;;;;;;;10.30;4.80;;;;;;;18.07;100.00;53271.38;6245502;23;20157;-61
2023/05/23 16:17:08;;;;;;;5.70;5.10;;;;;;;18.08;100.00;49330.88;6245658;23;20231;-62
2023/05/23 16:19:35;;;;;;;5.70;5.20;;;;;;;18.05;100.00;45392.16;6245793;23;20161;-63
2023/05/23 16:22:02;;;;;;;5.07;4.63;;;;;;;18.01;100.00;48668.56;6245817;23;20500;-61
2023/05/23 16:24:28;;;;;;;5.30;4.73;;;;;;;17.84;100.00;59167.38;6245628;23;20161;-62
2023/05/23 16:26:57;;;;;;;4.73;4.43;;;;;;;17.99;100.00;54906.69;6245387;23;20173;-63
2023/05/23 16:29:24;;;;;;;5.77;5.17;;;;;;;17.92;100.00;47021.41;6245484;23;20236;-61
2023/05/23 16:31:51;;;;;;;5.83;4.80;;;;;;;17.88;100.00;45050.94;6245455;23;20287;-62
2023/05/23 16:34:18;;;;;;;6.10;4.67;;;;;;;17.84;100.00;43409.78;6245541;23;20161;-62
2023/05/23 16:36:45;;;;;;;4.70;4.20;;;;;;;17.76;100.00;39476.66;6245619;23;20157;-62
2023/05/23 16:39:12;;;;;;;4.47;4.17;;;;;;;17.83;100.00;33598.00;6245477;23;20657;-62
2023/05/23 16:41:39;;;;;;;4.33;4.13;;;;;;;17.83;100.00;32292.03;6244996;23;20196;-61
2023/05/23 16:44:07;;;;;;;4.43;4.23;;;;;;;17.68;100.00;24135.00;6245355;23;20171;-61
2023/05/23 16:46:34;;;;;;;6.00;5.33;;;;;;;17.76;100.00;24138.56;6245781;23;20468;-61
2023/05/23 16:49:01;;;;;;;4.47;4.17;;;;;;;17.43;100.00;17946.50;6245571;23;20165;-62
2023/05/23 16:51:28;;;;;;;4.73;4.37;;;;;;;17.54;100.00;13729.56;6244862;23;20161;-62
2023/05/23 16:53:55;;;;;;;5.00;4.60;;;;;;;17.60;100.00;16652.81;6245097;23;20164;-61
2023/05/23 16:56:21;;;;;;;4.93;4.60;;;;;;;17.51;100.00;14702.22;6245094;23;20196;-62
2023/05/23 16:58:48;;;;;;;5.37;5.03;;;;;;;17.60;100.00;15029.47;6245139;23;20157;-62
2023/05/23 17:01:18;;;;;;;6.93;5.27;;;;;;;17.64;100.00;15355.19;6244957;23;20192;-63
2023/05/23 17:03:45;;;;;;;5.30;4.97;;;;;;;17.69;100.00;16655.75;6244922;23;20247;-62
2023/05/23 17:06:12;;;;;;;4.80;4.50;;;;;;;17.63;100.00;17628.34;6244974;23;20239;-61
2023/05/23 17:08:39;;;;;;;4.40;4.10;;;;;;;17.63;100.00;22179.94;6245005;23;20544;-62
2023/05/23 17:11:06;;;;;;;4.90;4.50;;;;;;;17.61;100.00;35544.59;6245259;23;20592;-61
2023/05/23 17:13:33;;;;;;;5.53;4.43;;;;;;;17.62;100.00;36198.28;6245441;23;20161;-62
2023/05/23 17:16:00;;;;;;;4.30;4.10;;;;;;;17.61;100.00;39139.53;6245356;23;20637;-61
2023/05/23 17:18:28;;;;;;;10.53;5.10;;;;;;;17.61;100.00;44375.00;6245404;23;20588;-62
2023/05/23 17:20:55;;;;;;;4.43;4.03;;;;;;;17.63;100.00;51589.34;6245432;23;20638;-62
2023/05/23 17:23:22;;;;;;;4.73;3.97;;;;;;;17.53;100.00;43714.31;6244816;23;20184;-60
2023/05/23 17:25:49;;;;;;;4.03;3.83;;;;;;;17.52;100.00;42403.91;6244863;23;20160;-62
2023/05/23 17:28:16;;;;;;;7.40;4.30;;;;;;;17.54;100.00;41750.91;6244850;23;20240;-61
2023/05/23 17:30:43;;;;;;;4.67;4.30;;;;;;;17.52;100.00;39460.25;6244936;23;20157;-62
2023/05/23 17:33:11;;;;;;;4.53;4.20;;;;;;;17.51;100.00;37171.59;6245218;23;20153;-61
2023/05/23 17:35:39;;;;;;;5.63;4.70;;;;;;;17.55;100.00;34887.34;6245106;23;20220;-60
2023/05/23 17:38:06;;;;;;;5.73;5.23;;;;;;;17.54;100.00;33254.47;6245207;23;20233;-61
2023/05/23 17:40:33;;;;;;;7.53;4.77;;;;;;;17.57;100.00;31298.50;6244810;23;20248;-61
2023/05/23 17:43:00;;;;;;;5.53;5.03;;;;;;;17.51;100.00;28035.31;6244697;23;20279;-62
2023/05/23 17:45:27;;;;;;;6.23;4.93;;;;;;;17.50;100.00;20548.59;6245064;23;20157;-60
2023/05/23 17:47:53;;;;;;;5.80;5.20;;;;;;;17.38;100.00;19894.09;6244747;23;20157;-61
2023/05/23 17:50:21;;;;;;;5.37;4.90;;;;;;;17.25;100.00;17615.56;6244903;23;20210;-61
2023/05/23 17:52:50;;;;;;;6.10;5.70;;;;;;;17.25;100.00;13397.22;6244990;23;20241;-61
2023/05/23 17:55:17;;;;;;;6.37;6.07;;;;;;;17.18;100.00;9182.84;6244661;23;20157;-61
2023/05/23 17:57:44;;;;;;;5.93;5.63;;;;;;;17.14;100.00;6269.03;6244569;23;20195;-61
2023/05/23 18:00:12;;;;;;;5.90;5.60;;;;;;;16.95;100.00;5296.00;6244962;23;20523;-62
2023/05/23 18:02:39;;;;;;;6.23;5.90;;;;;;;16.87;100.00;1740.63;6243890;23;20203;-61
2023/05/23 18:05:08;;;;;;;8.13;5.90;;;;;;;16.97;100.00;772.63;6244851;23;20497;-62
2023/05/23 18:07:35;;;;;;;8.23;5.83;;;;;;;17.03;100.00;1418.91;6244846;23;20165;-62
2023/05/23 18:10:04;;;;;;;6.17;5.63;;;;;;;17.02;100.00;3357.38;6244512;23;20199;-61
2023/05/23 18:12:31;;;;;;;6.40;6.00;;;;;;;17.01;100.00;3680.44;6244895;23;20256;-61
2023/05/23 18:14:58;;;;;;;5.60;5.27;;;;;;;17.09;100.00;3681.34;6244604;23;20236;-62
2023/05/23 18:17:25;;;;;;;7.50;6.40;;;;;;;17.12;100.00;3681.63;6244860;23;20160;-62
2023/05/23 18:19:52;;;;;;;5.97;5.53;;;;;;;17.10;100.00;6268.41;6244337;23;20243;-61
2023/05/23 18:22:20;;;;;;;9.80;5.47;;;;;;;17.11;100.00;6915.66;6244582;23;20512;-61
2023/05/23 18:24:47;;;;;;;6.37;5.50;;;;;;;16.98;100.00;3680.03;6244261;23;20564;-61
2023/05/23 18:27:15;;;;;;;6.87;5.73;;;;;;;17.14;100.00;3681.94;6244318;23;20160;-61
2023/05/23 18:29:42;;;;;;;9.17;6.00;;;;;;;16.87;100.00;2386.63;6218833;23;20489;-60
2023/05/23 18:32:10;;;;;;;14.93;7.10;;;;;;;16.81;100.00;1417.28;6218087;23;20175;-60
2023/05/23 18:34:37;;;;;;;11.37;7.70;;;;;;;16.64;100.00;-520.19;6244674;23;20642;-62
2023/05/23 18:37:05;;;;;;;17.10;7.50;;;;;;;16.42;100.00;-2455.53;6244580;23;20157;-61
2023/05/23 18:39:31;;;;;;;14.20;7.43;;;;;;;16.49;100.00;-4066.69;6244678;23;20515;-61
2023/05/23 18:41:58;;;;;;;10.47;6.50;;;;;;;16.42;100.00;-4710.81;6217486;23;20523;-60
2023/05/23 18:44:27;;;;;;;6.70;6.03;;;;;;;16.29;100.00;-6963.78;6244544;23;20167;-60
2023/05/23 18:46:53;;;;;;;12.30;7.50;;;;;;;16.23;100.00;-7928.59;6244415;23;20487;-60
2023/05/23 18:49:20;;;;;;;14.37;7.03;;;;;;;16.20;100.00;-7928.31;6244091;23;20156;-61
2023/05/23 18:51:50;;;;;;;12.10;7.23;;;;;;;16.33;100.00;-8250.97;6244349;23;20161;-61
2023/05/23 18:54:17;;;;;;;11.63;6.90;;;;;;;16.33;100.00;-9215.88;6244401;23;20157;-61
2023/05/23 18:56:44;;;;;;;12.40;7.83;;;;;;;16.21;100.00;-7606.78;6244407;23;20203;-61
2023/05/23 18:59:13;;;;;;;15.70;8.27;;;;;;;16.09;100.00;-7605.91;6244551;23;20157;-62
2023/05/23 19:01:41;;;;;;;17.80;8.77;;;;;;;15.94;100.00;-7604.91;6244444;23;20184;-61
2023/05/23 19:04:08;;;;;;;13.10;8.23;;;;;;;15.96;100.00;-7926.59;6243978;23;20255;-62
2023/05/23 19:06:35;;;;;;;20.03;8.33;;;;;;;15.93;100.00;-8569.34;6244424;23;20560;-61
2023/05/23 19:09:05;;;;;;;15.40;8.87;;;;;;;15.65;100.00;-9530.72;6244123;23;20163;-62
2023/05/23 19:11:32;;;;;;;12.83;8.43;;;;;;;15.74;100.00;-10174.06;6244345;23;20165;-60
2023/05/23 19:13:59;;;;;;;17.33;8.97;;;;;;;15.71;100.00;-10815.94;6243920;23;20153;-62
2023/05/23 19:16:26;;;;;;;13.23;8.37;;;;;;;15.59;100.00;-10814.56;6244370;23;20635;-61
2023/05/23 19:18:54;;;;;;;19.00;8.93;;;;;;;15.72;100.00;-12100.31;6244445;23;20179;-60
2023/05/23 19:21:21;;;;;;;18.10;8.80;;;;;;;15.66;100.00;-12741.22;6244340;23;20606;-62
2023/05/23 19:23:48;;;;;;;14.67;8.77;;;;;;;15.42;100.00;-12096.06;6243783;23;20180;-62
2023/05/23 19:26:15;;;;;;;17.03;9.17;;;;;;;15.37;100.00;-12095.34;6243841;23;20161;-61
2023/05/23 19:28:42;;;;;;;15.90;8.60;;;;;;;15.18;100.00;-12413.41;6244367;23;20156;-61
2023/05/23 19:31:11;;;;;;;11.83;8.90;;;;;;;15.21;100.00;-11451.56;6243872;23;20157;-61
2023/05/23 19:33:38;;;;;;;12.13;9.80;;;;;;;15.21;100.00;-10809.94;6243979;23;20159;-60
2023/05/23 19:36:06;;;;;;;17.27;10.10;;;;;;;15.22;100.00;-10489.19;6244351;23;20160;-61
2023/05/23 19:38:33;;;;;;;13.07;9.50;;;;;;;15.22;100.00;-9847.38;6243864;23;20157;-60
2023/05/23 19:41:00;;;;;;;9.47;8.77;;;;;;;15.32;100.00;-10811.28;6243837;23;20163;-60
2023/05/23 19:43:27;;;;;;;12.23;9.33;;;;;;;15.35;100.00;-10811.66;6243465;23;20200;-61
2023/05/23 19:45:53;;;;;;;18.90;9.67;;;;;;;15.28;100.00;-10489.91;6243788;23;20157;-61
2023/05/23 19:48:20;;;;;;;12.47;9.27;;;;;;;15.08;100.00;-10808.50;6244480;23;20460;-61
2023/05/23 19:50:47;;;;;;;12.17;10.33;;;;;;;15.18;100.00;-10488.75;6244233;23;20521;-61
2023/05/23 19:53:15;;;;;;;17.50;11.10;;;;;;;15.23;100.00;-10489.31;6244149;23;20495;-60
2023/05/23 19:55:42;;;;;;;17.00;11.63;;;;;;;15.26;100.00;-8563.69;6244124;23;20163;-61
2023/05/23 19:58:09;;;;;;;12.27;11.03;;;;;;;15.17;100.00;-6957.31;6243829;23;20168;-61
2023/05/23 20:00:36;;;;;;;20.17;10.30;;;;;;;15.18;100.00;-4708.09;6243774;23;20157;-62
2023/05/23 20:03:04;;;;;;;12.50;9.97;;;;;;;15.52;100.00;-6959.34;6217516;23;20176;-60
2023/05/23 20:05:31;;;;;;;12.67;9.50;;;;;;;15.66;100.00;-6960.16;6243765;23;20600;-62
2023/05/23 20:07:57;;;;;;;14.50;10.23;;;;;;;15.59;100.00;-6959.75;6243711;23;20215;-62
2023/05/23 20:10:26;;;;;;;14.37;10.83;;;;;;;15.80;100.00;-7603.97;6244055;23;20158;-61
2023/05/23 20:12:53;;;;;;;19.07;11.20;;;;;;;15.63;100.00;-11778.09;6243707;23;20164;-61
2023/05/23 20:15:20;;;;;;;22.77;11.67;;;;;;;15.78;100.00;-13705.84;6217666;23;20588;-61
2023/05/23 20:17:46;;;;;;;16.93;12.63;;;;;;;15.68;100.00;-13704.16;6243802;23;20187;-61
2023/05/23 20:20:13;;;;;;;14.87;13.00;;;;;;;15.74;100.00;-12742.44;6243495;23;20157;-61
2023/05/23 20:22:40;;;;;;;17.60;12.23;;;;;;;15.75;100.00;-12100.66;6244062;23;20653;-61
2023/05/23 20:25:09;;;;;;;12.30;11.03;;;;;;;15.57;100.00;-10172.13;6244213;23;20188;-61
2023/05/23 20:27:37;;;;;;;13.80;8.97;;;;;;;15.55;100.00;-11456.03;6245417;23;20163;-60
2023/05/23 20:30:05;;;;;;;16.60;9.60;;;;;;;15.51;100.00;-9850.44;6245492;23;20175;-60
2023/05/23 20:32:31;;;;;;;13.07;10.13;;;;;;;15.40;100.00;-13058.09;6245467;23;20248;-61
2023/05/23 20:34:58;;;;;;;23.50;10.43;;;;;;;15.36;100.00;-13378.16;6218818;23;20157;-61
2023/05/23 20:37:27;;;;;;;15.57;11.13;;;;;;;15.27;100.00;-13376.69;6245443;23;20168;-61
2023/05/23 20:39:54;;;;;;;19.83;14.87;;;;;;;15.11;100.00;-14015.09;6245722;23;20488;-61
2023/05/23 20:42:20;;;;;;;21.30;15.27;;;;;;;15.07;100.00;-14335.03;6245065;23;20203;-61
2023/05/23 20:44:49;;;;;;;31.63;15.13;;;;;;;14.89;100.00;-14972.44;6245640;23;20184;-61
2023/05/23 20:47:16;;;;;;;18.67;12.87;;;;;;;14.90;100.00;-14331.91;6245875;23;20491;-60
2023/05/23 20:49:43;;;;;;;14.20;12.77;;;;;;;14.79;100.00;-14009.66;6245680;23;20161;-60
2023/05/23 20:52:10;;;;;;;23.87;13.20;;;;;;;14.95;100.00;-13692.09;6245233;23;20157;-61
2023/05/23 20:54:37;;;;;;;17.30;12.90;;;;;;;15.01;100.00;-14013.47;6245926;23;20160;-62
2023/05/23 20:57:04;;;;;;;15.10;11.90;;;;;;;14.99;100.00;-14333.50;6245584;23;20487;-60
2023/05/23 20:59:31;;;;;;;20.23;12.60;;;;;;;14.98;100.00;-14974.03;6245174;23;20164;-61
2023/05/23 21:01:59;;;;;;;19.27;13.10;;;;;;;14.98;100.00;-14653.78;6245502;23;20599;-61
2023/05/23 21:04:26;;;;;;;28.60;19.30;;;;;;;14.84;100.00;-14651.22;6245064;23;20242;-60
2023/05/23 21:06:53;;;;;;;19.33;13.30;;;;;;;14.92;100.00;-14332.34;6245057;23;20157;-61
2023/05/23 21:09:20;;;;;;;22.97;13.97;;;;;;;14.88;100.00;-14651.97;6245082;23;20161;-61
2023/05/23 21:11:46;;;;;;;14.47;12.87;;;;;;;14.80;100.00;-14650.50;6245387;23;20161;-62
2023/05/23 21:14:13;;;;;;;33.80;17.47;;;;;;;14.62;100.00;-14327.00;6245255;23;20161;-61
2023/05/23 21:16:40;;;;;;;21.13;18.00;;;;;;;14.54;100.00;-14325.59;6245431;23;20157;-61
2023/05/23 21:19:08;;;;;;;21.57;17.90;;;;;;;14.46;100.00;-14644.25;6245034;23;20161;-60
2023/05/23 21:21:36;;;;;;;25.63;17.33;;;;;;;14.34;100.00;-14322.09;6244965;23;20157;-61
2023/05/23 21:24:03;;;;;;;23.40;17.00;;;;;;;14.32;100.00;-14001.59;6244765;23;20184;-61
2023/05/23 21:26:30;;;;;;;23.50;18.43;;;;;;;14.22;100.00;-14319.88;6244915;23;20196;-61
2023/05/23 21:28:57;;;;;;;30.63;18.40;;;;;;;14.34;100.00;-14002.03;6244860;23;20623;-60
2023/05/23 21:31:24;;;;;;;27.73;16.43;;;;;;;14.31;100.00;-13681.34;6218066;23;20168;-63
2023/05/23 21:33:51;;;;;;;19.23;16.23;;;;;;;14.51;100.00;-13364.47;6245158;23;20587;-60
2023/05/23 21:36:19;;;;;;;19.83;14.63;;;;;;;14.30;100.00;-12720.75;6244746;23;20160;-60
2023/05/23 21:38:46;;;;;;;19.77;14.60;;;;;;;14.21;100.00;-12719.44;6244861;23;20161;-61
2023/05/23 21:41:13;;;;;;;15.23;13.30;;;;;;;14.11;100.00;-12718.00;6218618;23;20523;-61
2023/05/23 21:43:39;;;;;;;16.87;12.50;;;;;;;13.91;100.00;-12714.94;6244504;23;20207;-61
2023/05/23 21:46:06;;;;;;;17.57;12.70;;;;;;;14.13;100.00;-12718.22;6245058;23;20622;-60
2023/05/23 21:48:33;;;;;;;13.47;11.90;;;;;;;14.24;100.00;-12719.81;6244712;23;20156;-61
2023/05/23 21:51:00;;;;;;;14.77;12.97;;;;;;;14.29;100.00;-13040.75;6245057;23;20156;-60
2023/05/23 21:53:28;;;;;;;13.47;11.30;;;;;;;14.28;100.00;-13360.72;6244926;23;20441;-60
2023/05/23 21:55:55;;;;;;;14.67;11.03;;;;;;;14.30;100.00;-13040.91;6245084;23;20599;-61
2023/05/23 21:58:22;;;;;;;12.40;11.40;;;;;;;14.30;100.00;-13040.91;6244646;23;20157;-60
2023/05/23 22:00:49;;;;;;;12.60;10.70;;;;;;;14.31;100.00;-13041.06;6244861;23;20473;-61
2023/05/23 22:03:15;;;;;;;10.83;9.50;;;;;;;14.42;100.00;-14003.41;6244501;23;20180;-60
2023/05/23 22:05:42;;;;;;;11.83;10.50;;;;;;;14.47;100.00;-14324.34;6244657;23;20161;-61
2023/05/23 22:08:09;;;;;;;11.77;10.20;;;;;;;14.46;100.00;-14644.25;6244845;23;20157;-61
2023/05/23 22:10:39;;;;;;;14.10;11.10;;;;;;;14.56;100.00;-14966.22;6244498;23;20161;-61
2023/05/23 22:13:06;;;;;;;14.43;11.33;;;;;;;14.62;100.00;-14647.19;6244445;23;20160;-61
2023/05/23 22:15:34;;;;;;;15.13;11.80;;;;;;;14.46;100.00;-14964.41;6244364;23;20161;-61
2023/05/23 22:18:01;;;;;;;14.23;10.90;;;;;;;14.45;100.00;-15604.16;6244286;23;20215;-60
2023/05/23 22:20:28;;;;;;;11.87;10.77;;;;;;;14.24;100.00;-15600.09;6244248;23;20171;-62
2023/05/23 22:22:55;;;;;;;11.50;10.50;;;;;;;14.19;100.00;-15919.03;6244191;23;20568;-60
2023/05/23 22:25:23;;;;;;;10.53;9.83;;;;;;;14.34;100.00;-15601.97;6244327;23;20157;-61
2023/05/23 22:27:52;;;;;;;11.97;10.33;;;;;;;14.25;100.00;-15920.03;6244697;23;20157;-61
2023/05/23 22:30:19;;;;;;;11.67;10.70;;;;;;;13.80;100.00;-15910.94;6244314;23;20508;-60
2023/05/23 22:32:45;;;;;;;16.13;11.07;;;;;;;13.76;100.00;-15270.88;6244707;23;20156;-61
2023/05/23 22:35:12;;;;;;;14.07;10.90;;;;;;;13.99;100.00;-14635.72;6244515;23;20310;-60
2023/05/23 22:37:39;;;;;;;20.73;11.13;;;;;;;14.10;100.00;-14317.91;6244326;23;20156;-61
2023/05/23 22:40:08;;;;;;;10.40;9.53;;;;;;;13.99;100.00;-13995.97;6244716;23;20157;-62
2023/05/23 22:42:35;;;;;;;14.37;10.07;;;;;;;14.23;100.00;-14000.13;6244314;23;20513;-61
2023/05/23 22:45:04;;;;;;;10.53;9.70;;;;;;;14.32;100.00;-13681.50;6244024;23;20181;-61
2023/05/23 22:47:31;;;;;;;11.87;9.33;;;;;;;14.39;100.00;-13682.69;6244587;23;20214;-61
2023/05/23 22:49:58;;;;;;;8.10;7.33;;;;;;;14.43;100.00;-13683.34;6243770;23;20169;-60
2023/05/23 22:52:25;;;;;;;7.53;7.13;;;;;;;14.46;100.00;-14004.13;6244543;23;20168;-61
2023/05/23 22:54:52;;;;;;;10.30;7.30;;;;;;;14.44;100.00;-14643.97;6244006;23;20168;-61
2023/05/23 22:57:19;;;;;;;9.23;7.60;;;;;;;14.45;100.00;-15604.16;6244426;23;20168;-60
2023/05/23 22:59:46;;;;;;;8.90;8.20;;;;;;;14.39;100.00;-16562.69;6244043;23;20248;-60
2023/05/23 23:02:14;;;;;;;8.97;8.33;;;;;;;14.26;100.00;-16879.69;6244348;23;20157;-60
2023/05/23 23:04:43;;;;;;;8.07;6.90;;;;;;;14.21;100.00;-16558.81;6244433;23;20696;-61
2023/05/23 23:07:10;;;;;;;7.30;6.70;;;;;;;14.18;100.00;-16558.28;6218035;23;20580;-61
2023/05/23 23:09:37;;;;;;;8.20;7.40;;;;;;;14.16;100.00;-17197.41;6244059;23;20481;-61
2023/05/23 23:12:04;;;;;;;8.23;7.43;;;;;;;14.17;100.00;-17517.28;6244332;23;20165;-60
2023/05/23 23:14:31;;;;;;;7.07;6.40;;;;;;;13.72;100.00;-17826.47;6243980;23;20153;-60
2023/05/23 23:16:58;;;;;;;9.90;7.50;;;;;;;14.02;100.00;-17513.72;6243993;23;20161;-59
2023/05/23 23:19:28;;;;;;;6.47;6.17;;;;;;;13.93;100.00;-17192.09;6244531;23;20161;-61
2023/05/23 23:21:55;;;;;;;9.63;6.30;;;;;;;14.13;100.00;-16876.94;6243905;23;20665;-60
2023/05/23 23:24:22;;;;;;;7.13;6.63;;;;;;;14.07;100.00;-16875.72;6243770;23;20229;-60
2023/05/23 23:26:49;;;;;;;12.27;6.53;;;;;;;14.04;100.00;-16874.94;6244063;23;20255;-61
2023/05/23 23:29:16;;;;;;;6.37;6.03;;;;;;;14.10;100.00;-17196.03;6244394;23;20580;-61
2023/05/23 23:31:43;;;;;;;7.83;6.43;;;;;;;14.16;100.00;-17197.41;6243939;23;20161;-60
2023/05/23 23:34:10;;;;;;;7.10;5.73;;;;;;;14.02;100.00;-17194.25;6244345;23;20567;-61
2023/05/23 23:36:38;;;;;;;6.47;6.17;;;;;;;14.00;100.00;-17513.38;6243923;23;20161;-61
2023/05/23 23:39:05;;;;;;;6.70;6.10;;;;;;;14.17;100.00;-17517.28;6244257;23;20188;-61
2023/05/23 23:41:32;;;;;;;6.73;6.13;;;;;;;14.15;100.00;-17516.72;6243924;23;20259;-62
2023/05/23 23:43:59;;;;;;;7.07;6.57;;;;;;;14.37;100.00;-17521.66;6244374;23;20203;-60
2023/05/23 23:46:26;;;;;;;7.90;6.97;;;;;;;14.32;100.00;-17200.88;6244290;23;20163;-59
2023/05/23 23:48:53;;;;;;;7.27;6.67;;;;;;;14.33;100.00;-17201.09;6244194;23;20491;-60
2023/05/23 23:51:20;;;;;;;8.20;7.60;;;;;;;14.24;100.00;-16559.56;6243797;23;20171;-60
2023/05/23 23:53:48;;;;;;;7.20;6.70;;;;;;;14.22;100.00;-16878.91;6244109;23;20631;-60
2023/05/23 23:56:15;;;;;;;7.37;6.87;;;;;;;14.13;100.00;-17196.72;6244266;23;20163;-62
2023/05/23 23:58:41;;;;;;;7.37;6.87;;;;;;;14.16;100.00;-17197.41;6244182;23;20608;-61
